createdAt,value
2023-05-06T00:00:28.905Z,94.50
2023-05-06T00:03:15.852Z,94.50
2023-05-06T00:05:47.504Z,94.50
2023-05-06T00:08:15.767Z,94.50
2023-05-06T00:10:44.283Z,94.50
2023-05-06T00:13:12.917Z,94.50
2023-05-06T00:15:41.969Z,94.40
2023-05-06T00:18:10.252Z,94.40
2023-05-06T00:20:39.190Z,94.40
2023-05-06T00:23:08.962Z,94.40
2023-05-06T00:25:37.485Z,94.30
2023-05-06T00:28:05.858Z,94.30
2023-05-06T00:30:34.308Z,94.30
2023-05-06T00:33:02.978Z,94.30
2023-05-06T00:35:31.514Z,94.30
2023-05-06T00:38:08.016Z,94.30
2023-05-06T00:40:38.096Z,94.20
2023-05-06T00:43:06.423Z,94.20
2023-05-06T00:45:34.979Z,94.10
2023-05-06T00:48:05.273Z,94.10
2023-05-06T00:50:34.624Z,94.10
2023-05-06T00:53:05.160Z,94.10
2023-05-06T00:55:33.939Z,94.00
2023-05-06T00:58:04.030Z,93.80
2023-05-06T01:00:32.537Z,93.70
2023-05-06T01:03:00.868Z,93.70
2023-05-06T01:05:36.747Z,93.70
2023-05-06T01:08:11.084Z,93.60
2023-05-06T01:10:47.522Z,93.40
2023-05-06T01:13:26.049Z,93.50
2023-05-06T01:15:56.574Z,93.20
2023-05-06T01:18:28.207Z,93.10
2023-05-06T01:20:57.557Z,93.00
2023-05-06T01:23:27.273Z,92.70
2023-05-06T01:25:55.762Z,92.60
2023-05-06T01:28:23.975Z,92.40
2023-05-06T01:31:00.475Z,92.10
2023-05-06T01:33:38.084Z,91.80
2023-05-06T01:36:17.022Z,91.70
2023-05-06T01:38:58.951Z,91.40
2023-05-06T01:41:29.049Z,91.20
2023-05-06T01:43:59.050Z,91.00
2023-05-06T01:46:30.476Z,90.80
2023-05-06T01:49:01.178Z,90.60
2023-05-06T01:51:29.734Z,90.40
2023-05-06T01:53:59.328Z,90.20
2023-05-06T01:56:30.245Z,90.20
2023-05-06T01:58:59.758Z,90.00
2023-05-06T02:01:28.584Z,89.60
2023-05-06T02:03:57.129Z,89.20
2023-05-06T02:06:25.791Z,89.10
2023-05-06T02:08:54.151Z,88.70
2023-05-06T02:11:24.026Z,88.30
2023-05-06T02:13:52.356Z,87.70
2023-05-06T02:16:22.074Z,87.60
2023-05-06T02:18:51.001Z,87.30
2023-05-06T02:21:19.469Z,87.70
2023-05-06T02:23:47.715Z,86.80
2023-05-06T02:26:16.501Z,86.70
2023-05-06T02:28:46.062Z,86.00
2023-05-06T02:31:15.872Z,86.30
2023-05-06T02:33:45.994Z,86.00
2023-05-06T02:36:14.538Z,85.70
2023-05-06T02:38:42.786Z,85.60
2023-05-06T02:41:11.605Z,85.30
2023-05-06T02:43:39.809Z,85.30
2023-05-06T02:46:09.730Z,85.30
2023-05-06T02:48:37.957Z,85.00
2023-05-06T02:51:07.221Z,84.70
2023-05-06T02:53:35.451Z,84.70
2023-05-06T02:56:04.028Z,84.50
2023-05-06T02:58:32.272Z,84.20
2023-05-06T03:01:00.829Z,84.30
2023-05-06T03:03:30.460Z,84.20
2023-05-06T03:05:58.965Z,84.00
2023-05-06T03:08:27.220Z,84.20
2023-05-06T03:10:55.691Z,84.20
2023-05-06T03:13:24.074Z,84.10
2023-05-06T03:15:54.329Z,84.00
2023-05-06T03:18:23.736Z,84.00
2023-05-06T03:20:53.669Z,83.80
2023-05-06T03:23:22.063Z,83.40
2023-05-06T03:25:50.618Z,83.30
2023-05-06T03:28:18.950Z,83.00
2023-05-06T03:30:47.590Z,82.70
2023-05-06T03:33:15.797Z,82.60
2023-05-06T03:35:44.404Z,82.30
2023-05-06T03:38:14.166Z,82.30
2023-05-06T03:40:42.908Z,82.40
2023-05-06T03:43:11.257Z,82.20
2023-05-06T03:45:39.804Z,81.90
2023-05-06T03:48:08.136Z,81.70
2023-05-06T03:50:36.635Z,81.90
2023-05-06T03:53:04.940Z,81.80
2023-05-06T03:55:35.156Z,81.70
2023-05-06T03:58:03.391Z,81.80
2023-05-06T04:00:31.921Z,81.70
2023-05-06T04:03:00.243Z,81.50
2023-05-06T04:05:28.850Z,81.20
2023-05-06T04:07:57.138Z,81.20
2023-05-06T04:10:25.696Z,81.20
2023-05-06T04:12:55.435Z,81.30
2023-05-06T04:15:25.146Z,81.10
2023-05-06T04:17:53.485Z,81.00
2023-05-06T04:20:21.996Z,80.90
2023-05-06T04:22:50.201Z,80.60
2023-05-06T04:25:19.672Z,81.10
2023-05-06T04:27:47.948Z,80.40
2023-05-06T04:30:18.193Z,80.20
2023-05-06T04:32:46.776Z,80.00
2023-05-06T04:35:15.493Z,79.90
2023-05-06T04:37:44.423Z,79.80
2023-05-06T04:40:18.018Z,79.80
2023-05-06T04:42:46.379Z,79.80
2023-05-06T04:45:15.110Z,79.80
2023-05-06T04:47:44.735Z,79.50
2023-05-06T04:50:13.601Z,79.30
2023-05-06T04:52:41.918Z,79.30
2023-05-06T04:55:11.411Z,79.10
2023-05-06T04:57:39.831Z,79.10
2023-05-06T05:00:10.804Z,79.10
2023-05-06T05:02:39.270Z,79.20
2023-05-06T05:05:10.173Z,79.00
2023-05-06T05:07:38.544Z,78.80
2023-05-06T05:10:09.394Z,78.90
2023-05-06T05:12:38.020Z,78.80
2023-05-06T05:15:07.898Z,78.80
2023-05-06T05:17:36.427Z,78.60
2023-05-06T05:20:05.924Z,78.60
2023-05-06T05:22:35.607Z,78.80
2023-05-06T05:25:06.978Z,78.80
2023-05-06T05:27:36.410Z,78.60
2023-05-06T05:30:05.561Z,78.50
2023-05-06T05:32:33.860Z,78.60
2023-05-06T05:35:02.611Z,78.60
2023-05-06T05:37:31.286Z,78.70
2023-05-06T05:40:01.287Z,78.50
2023-05-06T05:42:30.989Z,78.50
2023-05-06T05:44:59.559Z,78.50
2023-05-06T05:47:27.933Z,78.50
2023-05-06T05:49:56.644Z,78.50
2023-05-06T05:52:24.939Z,78.60
2023-05-06T05:54:53.413Z,78.80
2023-05-06T05:57:23.235Z,78.60
2023-05-06T05:59:51.785Z,78.60
2023-05-06T06:02:20.352Z,78.70
2023-05-06T06:04:49.359Z,78.70
2023-05-06T06:07:17.849Z,78.70
2023-05-06T06:09:48.933Z,78.70
2023-05-06T06:12:18.149Z,78.70
2023-05-06T06:14:48.579Z,78.90
2023-05-06T06:17:17.111Z,79.00
2023-05-06T06:19:46.766Z,79.10
2023-05-06T06:22:15.101Z,79.30
2023-05-06T06:24:44.827Z,79.10
2023-05-06T06:27:13.179Z,79.20
2023-05-06T06:29:41.811Z,79.20
2023-05-06T06:32:11.578Z,79.40
2023-05-06T06:34:40.515Z,79.40
2023-05-06T06:37:11.565Z,79.60
2023-05-06T06:39:40.387Z,79.70
2023-05-06T06:42:08.627Z,79.80
2023-05-06T06:44:37.208Z,80.10
2023-05-06T06:47:05.487Z,80.10
2023-05-06T06:49:35.387Z,80.40
2023-05-06T06:52:03.717Z,80.70
2023-05-06T06:54:32.215Z,80.80
2023-05-06T06:57:01.535Z,81.10
2023-05-06T06:59:30.006Z,81.50
2023-05-06T07:01:58.368Z,82.20
2023-05-06T07:04:26.990Z,83.10
2023-05-06T07:06:56.777Z,83.40
2023-05-06T07:09:25.345Z,84.20
2023-05-06T07:11:53.683Z,84.70
2023-05-06T07:14:22.332Z,84.90
2023-05-06T07:16:51.612Z,85.50
2023-05-06T07:19:20.294Z,85.90
2023-05-06T07:21:49.528Z,86.20
2023-05-06T07:24:19.681Z,86.60
2023-05-06T07:26:48.352Z,86.80
2023-05-06T07:29:16.943Z,87.40
2023-05-06T07:31:45.222Z,87.80
2023-05-06T07:34:13.765Z,88.20
2023-05-06T07:36:43.500Z,88.80
2023-05-06T07:39:12.461Z,89.70
2023-05-06T07:41:42.119Z,90.10
2023-05-06T07:44:10.962Z,90.30
2023-05-06T07:46:39.824Z,90.70
2023-05-06T07:49:08.372Z,91.70
2023-05-06T07:51:36.803Z,91.70
2023-05-06T07:54:05.912Z,92.00
2023-05-06T07:56:34.250Z,92.50
2023-05-06T07:59:04.269Z,93.10
2023-05-06T08:01:32.741Z,93.50
2023-05-06T08:04:01.561Z,93.90
2023-05-06T08:06:29.893Z,94.20
2023-05-06T08:08:58.504Z,94.60
2023-05-06T08:11:27.108Z,94.90
2023-05-06T08:13:55.800Z,95.20
2023-05-06T08:16:26.067Z,95.70
2023-05-06T08:18:54.705Z,95.90
2023-05-06T08:21:23.071Z,96.10
2023-05-06T08:23:52.746Z,96.50
2023-05-06T08:26:21.440Z,96.60
2023-05-06T08:28:50.104Z,96.80
2023-05-06T08:31:18.286Z,97.00
2023-05-06T08:33:48.436Z,97.30
2023-05-06T08:36:16.740Z,97.40
2023-05-06T08:38:50.437Z,97.50
2023-05-06T08:41:21.307Z,98.20
2023-05-06T08:43:51.189Z,98.10
2023-05-06T08:46:19.970Z,98.40
2023-05-06T08:48:50.117Z,98.50
2023-05-06T08:51:18.992Z,98.70
2023-05-06T08:53:49.525Z,98.90
2023-05-06T08:56:19.404Z,99.20
2023-05-06T08:58:49.189Z,99.50
2023-05-06T09:01:18.031Z,99.90
2023-05-06T09:03:47.051Z,99.90
2023-05-06T09:06:16.936Z,99.90
2023-05-06T09:08:45.278Z,99.90
2023-05-06T09:11:24.083Z,99.90
2023-05-06T09:13:52.750Z,99.90
2023-05-06T09:16:31.670Z,99.90
2023-05-06T09:19:00.695Z,99.90
2023-05-06T09:21:36.457Z,99.90
2023-05-06T09:24:06.541Z,99.90
2023-05-06T09:26:35.729Z,99.90
2023-05-06T09:29:04.684Z,99.90
2023-05-06T09:31:35.563Z,99.90
2023-05-06T09:34:03.738Z,99.90
2023-05-06T09:36:32.366Z,99.90
2023-05-06T09:39:02.217Z,99.90
2023-05-06T09:41:31.011Z,99.90
2023-05-06T09:43:59.628Z,99.90
2023-05-06T09:46:28.478Z,99.90
2023-05-06T09:48:58.291Z,99.90
2023-05-06T09:51:27.805Z,99.90
2023-05-06T09:53:58.529Z,99.90
2023-05-06T09:56:29.172Z,99.90
2023-05-06T09:58:57.929Z,99.90
2023-05-06T10:01:36.176Z,99.90
2023-05-06T10:04:09.379Z,99.90
2023-05-06T10:06:40.934Z,99.90
2023-05-06T10:09:10.446Z,99.90
2023-05-06T10:11:40.656Z,99.90
2023-05-06T10:14:09.756Z,99.90
2023-05-06T10:16:40.159Z,99.90
2023-05-06T10:19:09.812Z,99.90
2023-05-06T10:21:42.807Z,99.90
2023-05-06T10:24:14.539Z,99.90
2023-05-06T10:26:46.724Z,99.90
2023-05-06T10:29:15.103Z,99.90
2023-05-06T10:31:48.802Z,99.90
2023-05-06T10:34:20.542Z,99.90
2023-05-06T10:36:51.949Z,99.90
2023-05-06T10:39:21.062Z,99.90
2023-05-06T10:41:51.352Z,99.90
2023-05-06T10:44:19.663Z,99.90
2023-05-06T10:47:09.477Z,99.90
2023-05-06T10:49:37.761Z,99.90
2023-05-06T10:52:14.550Z,99.90
2023-05-06T10:54:50.747Z,99.90
2023-05-06T10:57:27.066Z,99.90
2023-05-06T10:59:56.071Z,99.90
2023-05-06T11:02:25.353Z,99.90
2023-05-06T11:05:02.303Z,99.90
2023-05-06T11:07:31.892Z,99.90
2023-05-06T11:10:02.165Z,99.90
2023-05-06T11:12:56.919Z,99.90
2023-05-06T11:15:38.578Z,99.90
2023-05-06T11:18:45.082Z,99.90
2023-05-06T11:21:38.928Z,99.90
2023-05-06T11:24:08.965Z,99.90
2023-05-06T11:26:37.217Z,99.90
2023-05-06T11:29:08.235Z,99.90
2023-05-06T11:31:41.546Z,99.90
2023-05-06T11:34:12.830Z,99.90
2023-05-06T11:36:49.861Z,99.90
2023-05-06T11:39:18.457Z,99.90
2023-05-06T11:41:46.923Z,99.90
2023-05-06T11:44:30.410Z,99.90
2023-05-06T11:47:03.137Z,99.90
2023-05-06T11:49:36.899Z,99.90
2023-05-06T11:52:05.904Z,99.90
2023-05-06T11:54:36.790Z,99.90
2023-05-06T11:57:05.478Z,99.90
2023-05-06T11:59:37.472Z,99.90
2023-05-06T12:02:07.279Z,99.90
2023-05-06T12:04:41.348Z,99.90
2023-05-06T12:07:11.531Z,99.90
2023-05-06T12:09:42.905Z,99.90
2023-05-06T12:12:12.291Z,99.90
2023-05-06T12:14:43.119Z,99.90
2023-05-06T12:17:12.260Z,99.90
2023-05-06T12:19:40.876Z,99.90
2023-05-06T12:22:19.493Z,99.90
2023-05-06T12:24:49.440Z,99.90
2023-05-06T12:27:30.938Z,99.90
2023-05-06T12:30:01.072Z,99.90
2023-05-06T12:32:29.377Z,99.90
2023-05-06T12:34:59.526Z,99.90
2023-05-06T12:37:30.313Z,99.90
2023-05-06T12:40:07.842Z,99.90
2023-05-06T12:42:36.208Z,99.90
2023-05-06T12:45:16.022Z,99.90
2023-05-06T12:47:54.926Z,99.90
2023-05-06T12:50:33.840Z,99.90
2023-05-06T12:53:02.739Z,99.90
2023-05-06T12:55:32.025Z,99.90
2023-05-06T12:58:00.802Z,99.90
2023-05-06T13:00:31.441Z,99.90
2023-05-06T13:03:00.164Z,99.90
2023-05-06T13:05:29.164Z,99.90
2023-05-06T13:07:57.531Z,99.90
2023-05-06T13:10:26.128Z,99.90
2023-05-06T13:12:54.563Z,99.90
2023-05-06T13:15:23.167Z,99.90
2023-05-06T13:17:53.049Z,99.90
2023-05-06T13:20:21.742Z,99.90
2023-05-06T13:22:55.216Z,99.90
2023-05-06T13:25:24.328Z,99.90
2023-05-06T13:27:52.711Z,99.90
2023-05-06T13:30:21.325Z,99.90
2023-05-06T13:32:49.815Z,99.90
2023-05-06T13:35:20.134Z,99.90
2023-05-06T13:37:48.457Z,99.90
2023-05-06T13:40:17.249Z,99.90
2023-05-06T13:42:45.549Z,99.90
2023-05-06T13:45:14.074Z,99.90
2023-05-06T13:47:43.081Z,99.90
2023-05-06T13:50:12.357Z,99.90
2023-05-06T13:52:42.183Z,99.90
2023-05-06T13:55:11.265Z,99.90
2023-05-06T13:57:39.950Z,99.90
2023-05-06T14:00:11.010Z,99.90
2023-05-06T14:02:39.331Z,99.90
2023-05-06T14:05:09.836Z,99.90
2023-05-06T14:07:40.322Z,99.90
2023-05-06T14:10:12.005Z,99.90
2023-05-06T14:12:41.009Z,99.90
2023-05-06T14:15:10.677Z,99.90
2023-05-06T14:17:39.884Z,99.90
2023-05-06T14:20:10.099Z,99.90
2023-05-06T14:22:40.708Z,99.90
2023-05-06T14:25:11.831Z,99.90
2023-05-06T14:27:40.577Z,99.90
2023-05-06T14:30:10.073Z,99.90
2023-05-06T14:32:38.812Z,99.90
2023-05-06T14:35:08.797Z,99.90
2023-05-06T14:37:37.874Z,99.90
2023-05-06T14:40:07.903Z,99.90
2023-05-06T14:42:37.734Z,99.90
2023-05-06T14:45:07.381Z,99.90
2023-05-06T14:47:35.997Z,99.90
2023-05-06T14:50:04.711Z,99.90
2023-05-06T14:52:32.923Z,99.90
2023-05-06T14:55:01.580Z,99.90
2023-05-06T14:57:29.989Z,99.90
2023-05-06T14:59:59.900Z,99.90
2023-05-06T15:02:28.125Z,99.90
2023-05-06T15:04:57.176Z,99.90
2023-05-06T15:07:25.478Z,99.90
2023-05-06T15:09:54.020Z,99.90
2023-05-06T15:12:22.380Z,99.90
2023-05-06T15:14:50.920Z,99.90
2023-05-06T15:17:21.195Z,99.90
2023-05-06T15:19:49.774Z,99.90
2023-05-06T15:22:18.117Z,99.90
2023-05-06T15:24:46.931Z,99.90
2023-05-06T15:27:15.234Z,99.90
2023-05-06T15:29:43.801Z,99.90
2023-05-06T15:32:11.978Z,99.90
2023-05-06T15:34:41.831Z,99.90
2023-05-06T15:37:11.020Z,99.90
2023-05-06T15:39:39.576Z,99.90
2023-05-06T15:42:07.953Z,99.90
2023-05-06T15:44:37.591Z,99.90
2023-05-06T15:47:06.330Z,99.90
2023-05-06T15:49:52.043Z,99.90
2023-05-06T15:52:25.019Z,99.90
2023-05-06T15:54:58.904Z,99.90
2023-05-06T15:57:30.180Z,99.90
2023-05-06T15:59:59.201Z,99.90
2023-05-06T16:02:27.852Z,99.90
2023-05-06T16:04:56.774Z,99.90
2023-05-06T16:07:26.556Z,99.90
2023-05-06T16:09:55.209Z,99.90
2023-05-06T16:12:23.389Z,99.90
2023-05-06T16:14:51.922Z,99.90
2023-05-06T16:17:20.651Z,99.90
2023-05-06T16:19:49.379Z,99.90
2023-05-06T16:22:17.703Z,99.90
2023-05-06T16:24:47.855Z,99.90
2023-05-06T16:27:16.377Z,99.90
2023-05-06T16:29:44.944Z,99.90
2023-05-06T16:32:13.322Z,99.90
2023-05-06T16:34:41.852Z,99.90
2023-05-06T16:37:10.393Z,99.90
2023-05-06T16:39:39.099Z,99.90
2023-05-06T16:42:08.702Z,99.90
2023-05-06T16:44:37.206Z,99.90
2023-05-06T16:47:05.852Z,99.90
2023-05-06T16:49:34.467Z,99.90
2023-05-06T16:52:02.723Z,99.90
2023-05-06T16:54:31.450Z,99.90
2023-05-06T16:57:00.004Z,99.90
2023-05-06T16:59:30.144Z,99.90
2023-05-06T17:01:58.395Z,99.90
2023-05-06T17:04:26.757Z,99.90
2023-05-06T17:06:56.080Z,99.90
2023-05-06T17:09:24.434Z,99.90
2023-05-06T17:11:53.139Z,99.90
2023-05-06T17:14:21.377Z,99.90
2023-05-06T17:16:52.125Z,99.90
2023-05-06T17:19:20.429Z,99.90
2023-05-06T17:21:49.152Z,99.90
2023-05-06T17:24:17.368Z,99.90
2023-05-06T17:26:46.105Z,99.90
2023-05-06T17:29:14.737Z,99.90
2023-05-06T17:31:43.321Z,99.90
2023-05-06T17:34:12.876Z,99.90
2023-05-06T17:36:41.400Z,99.90
2023-05-06T17:39:09.864Z,99.90
2023-05-06T17:41:38.722Z,99.90
2023-05-06T17:44:07.704Z,99.90
2023-05-06T17:46:36.797Z,99.90
2023-05-06T17:49:05.114Z,99.90
2023-05-06T17:51:34.967Z,99.90
2023-05-06T17:54:03.314Z,99.90
2023-05-06T17:56:31.821Z,99.90
2023-05-06T17:59:02.710Z,99.90
2023-05-06T18:01:31.630Z,99.90
2023-05-06T18:04:00.045Z,99.90
2023-05-06T18:06:28.839Z,99.90
2023-05-06T18:08:58.500Z,99.90
2023-05-06T18:11:27.344Z,99.90
2023-05-06T18:13:55.712Z,99.90
2023-05-06T18:16:24.314Z,99.90
2023-05-06T18:18:52.569Z,99.90
2023-05-06T18:21:21.410Z,99.90
2023-05-06T18:23:51.501Z,99.90
2023-05-06T18:26:43.259Z,99.90
2023-05-06T18:29:12.345Z,99.90
2023-05-06T18:31:40.962Z,99.90
2023-05-06T18:34:09.143Z,99.90
2023-05-06T18:36:37.650Z,99.90
2023-05-06T18:39:06.035Z,99.90
2023-05-06T18:41:36.121Z,99.90
2023-05-06T18:44:05.190Z,99.90
2023-05-06T18:46:33.815Z,99.90
2023-05-06T18:49:02.104Z,99.90
2023-05-06T18:51:32.034Z,99.90
2023-05-06T18:54:00.281Z,99.90
2023-05-06T18:56:28.815Z,99.90
2023-05-06T18:58:58.571Z,99.90
2023-05-06T19:01:27.426Z,99.90
2023-05-06T19:03:56.820Z,99.90
2023-05-06T19:06:25.453Z,99.90
2023-05-06T19:08:54.180Z,99.90
2023-05-06T19:11:22.673Z,99.90
2023-05-06T19:13:52.084Z,99.90
2023-05-06T19:16:21.980Z,99.90
2023-05-06T19:18:50.230Z,99.90
2023-05-06T19:21:19.564Z,99.90
2023-05-06T19:23:47.747Z,99.90
2023-05-06T19:26:16.325Z,99.90
2023-05-06T19:28:44.468Z,99.90
2023-05-06T19:31:13.049Z,99.90
2023-05-06T19:33:46.914Z,99.90
2023-05-06T19:36:16.289Z,99.90
2023-05-06T19:38:44.517Z,99.90
2023-05-06T19:41:13.282Z,99.90
2023-05-06T19:43:42.928Z,99.90
2023-05-06T19:46:12.000Z,99.90
2023-05-06T19:48:40.342Z,99.90
2023-05-06T19:51:10.196Z,99.90
2023-05-06T19:53:38.733Z,99.90
2023-05-06T19:56:11.334Z,99.90
2023-05-06T19:58:39.941Z,99.90
2023-05-06T20:01:09.053Z,99.90
2023-05-06T20:03:37.660Z,99.90
2023-05-06T20:06:06.790Z,99.90
2023-05-06T20:08:36.419Z,99.90
2023-05-06T20:11:05.903Z,99.90
2023-05-06T20:13:34.170Z,99.90
2023-05-06T20:16:03.165Z,99.90
2023-05-06T20:18:31.937Z,99.90
2023-05-06T20:21:00.447Z,99.90
2023-05-06T20:23:28.694Z,99.90
2023-05-06T20:25:58.997Z,99.90
2023-05-06T20:28:27.804Z,99.90
2023-05-06T20:30:59.769Z,99.90
2023-05-06T20:33:28.172Z,99.90
2023-05-06T20:35:58.042Z,99.90
2023-05-06T20:38:27.228Z,99.90
2023-05-06T20:40:56.215Z,99.90
2023-05-06T20:43:25.991Z,99.90
2023-05-06T20:45:54.657Z,99.90
2023-05-06T20:48:23.219Z,99.90
2023-05-06T20:50:54.212Z,99.90
2023-05-06T20:53:22.737Z,99.90
2023-05-06T20:55:51.397Z,99.90
2023-05-06T20:58:19.851Z,99.90
2023-05-06T21:00:50.550Z,99.90
2023-05-06T21:03:19.115Z,99.90
2023-05-06T21:05:47.645Z,99.90
2023-05-06T21:08:16.506Z,99.90
2023-05-06T21:10:45.012Z,99.90
2023-05-06T21:13:13.222Z,99.90
2023-05-06T21:15:41.691Z,99.90
2023-05-06T21:18:11.416Z,99.90
2023-05-06T21:20:40.125Z,99.90
2023-05-06T21:23:08.338Z,99.90
2023-05-06T21:25:36.966Z,99.90
2023-05-06T21:28:06.598Z,99.90
2023-05-06T21:30:36.571Z,99.90
2023-05-06T21:33:06.607Z,99.90
2023-05-06T21:35:36.545Z,99.90
2023-05-06T21:38:04.955Z,99.90
2023-05-06T21:40:33.487Z,99.90
2023-05-06T21:43:01.663Z,99.90
2023-05-06T21:45:30.328Z,99.90
2023-05-06T21:47:58.529Z,99.90
2023-05-06T21:50:27.348Z,99.90
2023-05-06T21:52:56.893Z,99.90
2023-05-06T21:55:27.777Z,99.90
2023-05-06T21:57:56.217Z,99.90
2023-05-06T22:00:24.854Z,99.90
2023-05-06T22:02:53.555Z,99.90
2023-05-06T22:05:22.240Z,99.90
2023-05-06T22:07:51.179Z,99.90
2023-05-06T22:10:21.063Z,99.90
2023-05-06T22:12:49.428Z,99.90
2023-05-06T22:15:18.191Z,99.90
2023-05-06T22:17:46.725Z,99.90
2023-05-06T22:20:15.550Z,99.90
2023-05-06T22:22:44.272Z,99.90
2023-05-06T22:25:13.071Z,99.90
2023-05-06T22:27:42.872Z,99.90
2023-05-06T22:30:13.477Z,99.90
2023-05-06T22:32:41.824Z,99.90
2023-05-06T22:35:11.002Z,99.90
2023-05-06T22:37:39.435Z,99.90
2023-05-06T22:40:09.305Z,99.90
2023-05-06T22:42:37.534Z,99.90
2023-05-06T22:45:09.592Z,99.90
2023-05-06T22:47:38.159Z,99.90
2023-05-06T22:50:08.205Z,99.90
2023-05-06T22:52:36.781Z,99.90
2023-05-06T22:55:06.120Z,99.90
2023-05-06T22:57:34.417Z,99.90
2023-05-06T23:00:03.837Z,99.90
2023-05-06T23:02:33.635Z,99.90
2023-05-06T23:05:02.382Z,99.90
2023-05-06T23:07:30.635Z,99.90
2023-05-06T23:09:59.780Z,99.90
2023-05-06T23:12:28.878Z,99.90
2023-05-06T23:14:57.405Z,99.90
2023-05-06T23:17:25.590Z,99.90
2023-05-06T23:19:55.531Z,99.90
2023-05-06T23:22:23.755Z,99.90
2023-05-06T23:24:52.507Z,99.90
2023-05-06T23:27:20.696Z,99.90
2023-05-06T23:29:49.420Z,99.90
2023-05-06T23:32:20.774Z,99.90
2023-05-06T23:34:49.619Z,99.90
2023-05-06T23:37:19.168Z,99.90
2023-05-06T23:39:47.889Z,99.90
2023-05-06T23:42:16.060Z,99.90
2023-05-06T23:44:44.539Z,99.90
2023-05-06T23:47:12.907Z,99.90
2023-05-06T23:49:41.360Z,99.90
2023-05-06T23:52:09.573Z,99.90
2023-05-06T23:54:39.497Z,99.90
2023-05-06T23:57:07.836Z,99.90
2023-05-06T23:59:36.867Z,99.90
